createdAt,value
2016-04-10T00:00:36.170Z,99.99
2016-04-10T00:01:36.125Z,99.99
2016-04-10T00:02:36.097Z,99.99
2016-04-10T00:03:36.006Z,99.99
2016-04-10T00:04:35.963Z,99.99
2016-04-10T00:05:35.902Z,99.99
2016-04-10T00:06:35.858Z,99.99
2016-04-10T00:07:35.799Z,99.99
2016-04-10T00:08:35.755Z,99.99
2016-04-10T00:09:35.694Z,99.99
2016-04-10T00:10:35.635Z,99.99
2016-04-10T00:11:35.574Z,99.99
2016-04-10T00:12:35.530Z,99.99
2016-04-10T00:13:35.487Z,99.99
2016-04-10T00:14:35.410Z,99.99
2016-04-10T00:15:35.383Z,99.99
2016-04-10T00:16:35.307Z,99.99
2016-04-10T00:17:35.262Z,99.99
2016-04-10T00:18:35.219Z,99.99
2016-04-10T00:19:35.143Z,99.99
2016-04-10T00:20:35.084Z,99.99
2016-04-10T00:21:35.070Z,99.99
2016-04-10T00:22:34.979Z,99.99
2016-04-10T00:23:34.950Z,99.99
2016-04-10T00:24:34.876Z,99.99
2016-04-10T00:25:34.831Z,99.99
2016-04-10T00:26:34.772Z,99.99
2016-04-10T00:27:34.727Z,99.99
2016-04-10T00:28:34.667Z,99.99
2016-04-10T00:29:34.623Z,99.99
2016-04-10T00:30:34.578Z,99.99
2016-04-10T00:31:34.503Z,99.99
2016-04-10T00:32:34.459Z,99.99
2016-04-10T00:33:34.416Z,99.99
2016-04-10T00:34:34.371Z,99.99
2016-04-10T00:35:34.311Z,99.99
2016-04-10T00:36:34.236Z,99.99
2016-04-10T00:37:34.176Z,99.99
2016-04-10T00:38:34.133Z,99.99
2016-04-10T00:39:34.088Z,99.99
2016-04-10T00:40:34.028Z,99.99
2016-04-10T00:41:33.968Z,99.99
2016-04-10T00:42:33.924Z,99.99
2016-04-10T00:43:33.864Z,99.99
2016-04-10T00:44:33.804Z,99.99
2016-04-10T00:45:33.744Z,99.99
2016-04-10T00:46:33.700Z,99.99
2016-04-10T00:47:33.640Z,99.99
2016-04-10T00:48:33.581Z,99.99
2016-04-10T00:49:33.537Z,99.99
2016-04-10T00:50:33.476Z,99.99
2016-04-10T00:51:33.417Z,99.99
2016-04-10T00:52:33.373Z,99.99
2016-04-10T00:53:33.313Z,99.99
2016-04-10T00:54:33.268Z,99.99
2016-04-10T00:55:33.209Z,99.99
2016-04-10T00:56:33.148Z,99.99
2016-04-10T00:57:33.105Z,99.99
2016-04-10T00:58:33.061Z,99.99
2016-04-10T00:59:33.000Z,99.99
2016-04-10T01:00:32.956Z,99.99
2016-04-10T01:01:32.912Z,99.99
2016-04-10T01:02:32.853Z,99.99
2016-04-10T01:03:32.793Z,99.99
2016-04-10T01:04:32.733Z,99.99
2016-04-10T01:05:32.699Z,99.99
2016-04-10T01:06:32.694Z,99.99
2016-04-10T01:07:32.675Z,99.99
2016-04-10T01:08:32.656Z,99.99
2016-04-10T01:09:32.635Z,99.99
2016-04-10T01:10:32.631Z,99.99
2016-04-10T01:11:32.584Z,99.99
2016-04-10T01:12:32.540Z,99.99
2016-04-10T01:13:32.495Z,99.99
2016-04-10T01:14:32.464Z,99.99
2016-04-10T01:15:32.429Z,99.99
2016-04-10T01:16:32.358Z,99.99
2016-04-10T01:17:32.320Z,99.99
2016-04-10T01:18:32.264Z,99.99
2016-04-10T01:19:32.256Z,99.99
2016-04-10T01:20:32.153Z,99.99
2016-04-10T01:21:32.110Z,99.99
2016-04-10T01:22:32.084Z,99.99
2016-04-10T01:23:32.010Z,99.99
2016-04-10T01:24:31.968Z,99.99
2016-04-10T01:25:31.926Z,99.99
2016-04-10T01:26:31.850Z,99.99
2016-04-10T01:27:37.854Z,99.99
2016-04-10T01:28:31.749Z,99.99
2016-04-10T01:29:31.689Z,99.99
2016-04-10T01:30:31.645Z,99.99
2016-04-10T01:31:31.601Z,99.99
2016-04-10T01:32:31.526Z,99.99
2016-04-10T01:33:31.483Z,99.99
2016-04-10T01:34:31.423Z,99.99
2016-04-10T01:35:31.363Z,99.99
2016-04-10T01:36:31.335Z,99.99
2016-04-10T01:37:31.306Z,99.99
2016-04-10T01:38:31.232Z,99.99
2016-04-10T01:39:31.156Z,99.99
2016-04-10T01:40:31.112Z,99.99
2016-04-10T01:41:31.051Z,99.99
2016-04-10T01:42:30.992Z,99.99
2016-04-10T01:43:30.932Z,99.99
2016-04-10T01:44:30.887Z,99.99
2016-04-10T01:45:30.829Z,99.99
2016-04-10T01:46:30.768Z,99.99
2016-04-10T01:47:30.724Z,99.99
2016-04-10T01:48:30.681Z,99.99
2016-04-10T01:49:30.620Z,99.99
2016-04-10T01:50:30.576Z,99.99
2016-04-10T01:51:30.500Z,99.99
2016-04-10T01:52:30.722Z,99.99
2016-04-10T01:53:30.397Z,99.99
2016-04-10T01:54:30.352Z,99.99
2016-04-10T01:55:30.292Z,99.99
2016-04-10T01:56:30.248Z,99.99
2016-04-10T01:57:30.188Z,99.99
2016-04-10T01:58:30.160Z,99.99
2016-04-10T01:59:30.085Z,99.99
2016-04-10T02:00:30.025Z,99.99
2016-04-10T02:01:29.965Z,99.99
2016-04-10T02:02:29.936Z,99.99
2016-04-10T02:03:29.861Z,99.99
2016-04-10T02:04:29.816Z,99.99
2016-04-10T02:05:29.757Z,99.99
2016-04-10T02:06:29.696Z,99.99
2016-04-10T02:07:29.684Z,99.99
2016-04-10T02:08:29.610Z,99.99
2016-04-10T02:09:29.533Z,99.99
2016-04-10T02:10:29.490Z,99.99
2016-04-10T02:11:29.429Z,99.99
2016-04-10T02:12:29.370Z,99.99
2016-04-10T02:13:29.326Z,99.99
2016-04-10T02:14:29.281Z,99.99
2016-04-10T02:15:29.221Z,99.99
2016-04-10T02:16:29.162Z,99.99
2016-04-10T02:17:29.117Z,99.99
2016-04-10T02:18:29.058Z,99.99
2016-04-10T02:19:28.998Z,99.99
2016-04-10T02:20:28.938Z,99.99
2016-04-10T02:21:28.894Z,99.99
2016-04-10T02:22:28.834Z,99.99
2016-04-10T02:23:28.775Z,99.99
2016-04-10T02:24:28.730Z,99.99
2016-04-10T02:25:28.670Z,99.99
2016-04-10T02:26:28.641Z,99.99
2016-04-10T02:27:28.581Z,99.99
2016-04-10T02:28:28.506Z,99.99
2016-04-10T02:29:28.462Z,99.99
2016-04-10T02:30:28.403Z,99.99
2016-04-10T02:31:28.374Z,99.99
2016-04-10T02:32:28.298Z,99.99
2016-04-10T02:33:28.239Z,99.99
2016-04-10T02:34:28.192Z,99.99
2016-04-10T02:35:28.147Z,99.99
2016-04-10T02:36:28.088Z,99.99
2016-04-10T02:37:28.027Z,99.99
2016-04-10T02:38:27.968Z,99.99
2016-04-10T02:39:27.924Z,99.99
2016-04-10T02:40:27.863Z,99.99
2016-04-10T02:41:27.820Z,99.99
2016-04-10T02:42:27.760Z,99.99
2016-04-10T02:43:27.732Z,99.99
2016-04-10T02:44:27.657Z,99.99
2016-04-10T02:45:27.596Z,99.99
2016-04-10T02:46:27.537Z,99.99
2016-04-10T02:47:27.476Z,99.99
2016-04-10T02:48:27.432Z,99.99
2016-04-10T02:49:27.373Z,99.99
2016-04-10T02:50:27.328Z,99.99
2016-04-10T02:51:27.268Z,99.99
2016-04-10T02:52:27.208Z,99.99
2016-04-10T02:53:27.148Z,99.99
2016-04-10T02:54:27.136Z,99.99
2016-04-10T02:55:27.061Z,99.99
2016-04-10T02:56:27.001Z,99.99
2016-04-10T02:57:26.941Z,99.99
2016-04-10T02:58:26.897Z,99.99
2016-04-10T02:59:26.837Z,99.99
2016-04-10T03:00:26.808Z,99.99
2016-04-10T03:01:26.733Z,99.99
2016-04-10T03:02:26.672Z,99.99
2016-04-10T03:03:26.629Z,99.99
2016-04-10T03:04:26.586Z,99.99
2016-04-10T03:05:26.525Z,99.99
2016-04-10T03:06:26.465Z,99.99
2016-04-10T03:07:26.421Z,99.99
2016-04-10T03:08:26.205Z,99.99
2016-04-10T03:09:26.305Z,99.99
2016-04-10T03:10:26.260Z,99.99
2016-04-10T03:11:26.200Z,99.99
2016-04-10T03:12:26.125Z,99.99
2016-04-10T03:13:26.080Z,99.99
2016-04-10T03:14:26.036Z,99.99
2016-04-10T03:15:25.992Z,99.99
2016-04-10T03:16:25.916Z,99.99
2016-04-10T03:17:25.857Z,99.99
2016-04-10T03:18:25.813Z,99.99
2016-04-10T03:19:25.754Z,99.99
2016-04-10T03:20:25.709Z,99.99
2016-04-10T03:21:25.649Z,99.99
2016-04-10T03:22:25.590Z,99.99
2016-04-10T03:23:25.545Z,99.99
2016-04-10T03:24:25.485Z,99.99
2016-04-10T03:25:25.440Z,99.99
2016-04-10T03:26:25.382Z,99.99
2016-04-10T03:27:25.337Z,99.99
2016-04-10T03:28:25.278Z,99.99
2016-04-10T03:29:25.218Z,99.99
2016-04-10T03:30:25.189Z,99.99
2016-04-10T03:31:25.129Z,99.99
2016-04-10T03:32:25.054Z,99.99
2016-04-10T03:33:24.994Z,99.99
2016-04-10T03:34:24.950Z,99.99
2016-04-10T03:35:24.889Z,99.99
2016-04-10T03:36:24.845Z,99.99
2016-04-10T03:37:24.786Z,99.99
2016-04-10T03:38:24.725Z,99.99
2016-04-10T03:39:24.667Z,99.99
2016-04-10T03:40:24.622Z,99.99
2016-04-10T03:41:24.563Z,99.99
2016-04-10T03:42:24.519Z,99.99
2016-04-10T03:43:24.458Z,99.99
2016-04-10T03:44:24.414Z,99.99
2016-04-10T03:45:24.338Z,99.99
2016-04-10T03:46:24.294Z,99.99
2016-04-10T03:47:24.235Z,99.99
2016-04-10T03:48:24.191Z,99.99
2016-04-10T03:49:24.131Z,99.99
2016-04-10T03:50:24.086Z,99.99
2016-04-10T03:51:24.027Z,99.99
2016-04-10T03:52:23.968Z,99.99
2016-04-10T03:53:23.923Z,99.99
2016-04-10T03:54:23.879Z,99.99
2016-04-10T03:55:23.818Z,99.99
2016-04-10T03:56:23.759Z,99.99
2016-04-10T03:57:23.699Z,99.99
2016-04-10T03:58:23.640Z,99.99
2016-04-10T03:59:23.595Z,99.99
2016-04-10T04:00:23.534Z,99.99
2016-04-10T04:01:23.475Z,99.99
2016-04-10T04:02:23.432Z,99.99
2016-04-10T04:03:23.372Z,99.99
2016-04-10T04:04:23.312Z,99.99
2016-04-10T04:05:23.267Z,99.99
2016-04-10T04:06:23.223Z,99.99
2016-04-10T04:07:23.164Z,99.99
2016-04-10T04:08:23.103Z,99.99
2016-04-10T04:09:23.059Z,99.99
2016-04-10T04:10:23.000Z,99.99
2016-04-10T04:11:22.956Z,99.99
2016-04-10T04:12:22.881Z,99.99
2016-04-10T04:13:22.836Z,99.99
2016-04-10T04:14:22.777Z,99.99
2016-04-10T04:15:22.732Z,99.99
2016-04-10T04:16:22.672Z,99.99
2016-04-10T04:17:22.613Z,99.99
2016-04-10T04:18:22.568Z,99.99
2016-04-10T04:19:22.524Z,99.99
2016-04-10T04:20:22.463Z,99.99
2016-04-10T04:21:22.404Z,99.99
2016-04-10T04:22:22.329Z,99.99
2016-04-10T04:23:22.285Z,99.99
2016-04-10T04:24:22.272Z,99.99
2016-04-10T04:25:22.196Z,99.99
2016-04-10T04:26:22.137Z,99.99
2016-04-10T04:27:22.093Z,99.99
2016-04-10T04:28:22.017Z,99.99
2016-04-10T04:29:21.957Z,99.99
2016-04-10T04:30:21.913Z,99.99
2016-04-10T04:31:21.853Z,99.99
2016-04-10T04:32:21.809Z,99.99
2016-04-10T04:33:21.749Z,99.99
2016-04-10T04:34:21.690Z,99.99
2016-04-10T04:35:21.645Z,99.99
2016-04-10T04:36:21.617Z,99.99
2016-04-10T04:37:21.525Z,99.99
2016-04-10T04:38:21.497Z,99.99
2016-04-10T04:39:21.437Z,99.99
2016-04-10T04:40:21.392Z,99.99
2016-04-10T04:41:21.317Z,99.99
2016-04-10T04:42:21.273Z,99.99
2016-04-10T04:43:21.214Z,99.99
2016-04-10T04:44:21.169Z,99.99
2016-04-10T04:45:20.937Z,99.99
2016-04-10T04:46:21.050Z,99.99
2016-04-10T04:47:21.005Z,99.99
2016-04-10T04:48:20.929Z,99.99
2016-04-10T04:49:20.886Z,99.99
2016-04-10T04:50:20.831Z,99.99
2016-04-10T04:51:20.787Z,99.99
2016-04-10T04:52:20.712Z,99.99
2016-04-10T04:53:20.667Z,99.99
2016-04-10T04:54:20.623Z,99.99
2016-04-10T04:55:20.766Z,99.99
2016-04-10T04:56:20.519Z,99.99
2016-04-10T04:57:20.459Z,99.99
2016-04-10T04:58:20.398Z,99.99
2016-04-10T04:59:20.356Z,99.99
2016-04-10T05:00:20.295Z,99.99
2016-04-10T05:01:20.235Z,99.99
2016-04-10T05:02:20.176Z,99.99
2016-04-10T05:03:20.131Z,99.99
2016-04-10T05:04:20.072Z,99.99
2016-04-10T05:05:20.012Z,99.99
2016-04-10T05:06:19.952Z,99.99
2016-04-10T05:07:19.908Z,99.99
2016-04-10T05:08:19.770Z,99.99
2016-04-10T05:09:19.788Z,99.99
2016-04-10T05:10:19.744Z,99.99
2016-04-10T05:11:19.684Z,99.99
2016-04-10T05:12:19.624Z,99.99
2016-04-10T05:13:19.581Z,99.99
2016-04-10T05:14:19.536Z,99.99
2016-04-10T05:15:19.477Z,99.99
2016-04-10T05:16:19.416Z,99.99
2016-04-10T05:17:19.357Z,99.99
2016-04-10T05:18:19.312Z,99.99
2016-04-10T05:19:19.253Z,99.99
2016-04-10T05:20:19.193Z,99.99
2016-04-10T05:21:19.148Z,99.99
2016-04-10T05:22:19.089Z,99.99
2016-04-10T05:23:19.154Z,99.99
2016-04-10T05:24:18.984Z,99.99
2016-04-10T05:25:18.926Z,99.99
2016-04-10T05:26:18.881Z,99.99
2016-04-10T05:27:18.821Z,99.99
2016-04-10T05:28:18.776Z,99.99
2016-04-10T05:29:18.717Z,99.99
2016-04-10T05:30:18.657Z,99.99
2016-04-10T05:31:18.612Z,99.99
2016-04-10T05:32:18.553Z,99.99
2016-04-10T05:33:18.493Z,99.99
2016-04-10T05:34:18.433Z,99.99
2016-04-10T05:35:18.406Z,99.99
2016-04-10T05:36:18.330Z,99.99
2016-04-10T05:37:18.269Z,99.99
2016-04-10T05:38:18.226Z,99.99
2016-04-10T05:39:18.181Z,99.99
2016-04-10T05:40:18.136Z,99.99
2016-04-10T05:41:18.062Z,99.99
2016-04-10T05:42:18.033Z,99.99
2016-04-10T05:43:17.974Z,99.99
2016-04-10T05:44:17.914Z,99.99
2016-04-10T05:45:17.854Z,99.99
2016-04-10T05:46:17.794Z,99.99
2016-04-10T05:47:17.734Z,99.99
2016-04-10T05:48:17.674Z,99.99
2016-04-10T05:49:17.630Z,99.99
2016-04-10T05:50:17.571Z,99.99
2016-04-10T05:51:17.527Z,99.99
2016-04-10T05:52:17.466Z,99.99
2016-04-10T05:53:17.422Z,99.99
2016-04-10T05:54:17.362Z,99.99
2016-04-10T05:55:17.302Z,99.99
2016-04-10T05:56:17.259Z,99.99
2016-04-10T05:57:17.182Z,99.99
2016-04-10T05:58:17.140Z,99.99
2016-04-10T05:59:17.079Z,99.99
2016-04-10T06:00:17.034Z,99.99
2016-04-10T06:01:16.975Z,99.99
2016-04-10T06:02:16.931Z,99.99
2016-04-10T06:03:16.870Z,99.99
2016-04-10T06:04:16.795Z,99.99
2016-04-10T06:05:16.033Z,99.99
2016-04-10T06:06:16.707Z,99.99
2016-04-10T06:07:16.663Z,99.99
2016-04-10T06:08:16.603Z,99.99
2016-04-10T06:09:16.559Z,99.99
2016-04-10T06:10:16.483Z,99.99
2016-04-10T06:11:16.424Z,99.99
2016-04-10T06:12:16.380Z,99.99
2016-04-10T06:13:16.319Z,99.99
2016-04-10T06:14:16.292Z,99.99
2016-04-10T06:15:16.231Z,99.99
2016-04-10T06:16:16.155Z,99.99
2016-04-10T06:17:16.127Z,99.99
2016-04-10T06:18:16.052Z,99.99
2016-04-10T06:19:16.007Z,99.99
2016-04-10T06:20:15.948Z,99.99
2016-04-10T06:21:15.888Z,99.99
2016-04-10T06:22:15.844Z,99.99
2016-04-10T06:23:17.107Z,99.99
2016-04-10T06:24:15.733Z,99.99
2016-04-10T06:25:15.663Z,99.99
2016-04-10T06:26:17.811Z,99.99
2016-04-10T06:27:15.585Z,99.99
2016-04-10T06:28:15.510Z,99.99
2016-04-10T06:29:15.652Z,99.99
2016-04-10T06:30:15.405Z,99.99
2016-04-10T06:31:15.346Z,99.99
2016-04-10T06:32:15.301Z,99.99
2016-04-10T06:33:15.226Z,99.99
2016-04-10T06:34:15.198Z,99.99
2016-04-10T06:35:15.122Z,99.99
2016-04-10T06:36:15.078Z,99.99
2016-04-10T06:37:15.018Z,99.99
2016-04-10T06:38:14.959Z,99.99
2016-04-10T06:39:14.914Z,99.99
2016-04-10T06:40:14.869Z,99.99
2016-04-10T06:41:14.810Z,99.99
2016-04-10T06:42:14.750Z,99.99
2016-04-10T06:43:14.706Z,99.99
2016-04-10T06:44:14.646Z,99.99
2016-04-10T06:45:14.586Z,99.99
2016-04-10T06:46:14.542Z,99.99
2016-04-10T06:47:14.483Z,99.99
2016-04-10T06:48:14.422Z,99.99
2016-04-10T06:49:14.363Z,99.99
2016-04-10T06:50:14.319Z,99.99
2016-04-10T06:51:14.290Z,99.99
2016-04-10T06:52:14.214Z,99.99
2016-04-10T06:53:14.155Z,99.99
2016-04-10T06:54:14.111Z,99.99
2016-04-10T06:55:14.050Z,99.99
2016-04-10T06:56:13.991Z,99.99
2016-04-10T06:57:13.930Z,99.99
2016-04-10T06:58:13.888Z,99.99
2016-04-10T06:59:13.827Z,99.99
2016-04-10T07:00:13.798Z,99.99
2016-04-10T07:01:13.755Z,99.99
2016-04-10T07:02:13.679Z,99.99
2016-04-10T07:03:13.618Z,99.99
2016-04-10T07:04:13.560Z,99.99
2016-04-10T07:05:13.516Z,99.99
2016-04-10T07:06:13.455Z,99.99
2016-04-10T07:07:13.395Z,99.99
2016-04-10T07:08:13.352Z,99.99
2016-04-10T07:09:13.292Z,99.99
2016-04-10T07:10:13.262Z,99.99
2016-04-10T07:11:13.218Z,99.99
2016-04-10T07:12:13.128Z,99.99
2016-04-10T07:13:13.083Z,99.99
2016-04-10T07:14:13.024Z,99.99
2016-04-10T07:15:12.995Z,99.99
2016-04-10T07:16:12.936Z,99.99
2016-04-10T07:17:12.891Z,99.99
2016-04-10T07:18:12.800Z,99.99
2016-04-10T07:19:12.772Z,99.99
2016-04-10T07:20:12.711Z,99.99
2016-04-10T07:21:12.652Z,99.99
2016-04-10T07:22:12.608Z,99.99
2016-04-10T07:23:12.563Z,99.99
2016-04-10T07:24:12.504Z,99.99
2016-04-10T07:25:12.460Z,99.99
2016-04-10T07:26:12.384Z,99.99
2016-04-10T07:27:12.324Z,99.99
2016-04-10T07:28:12.280Z,99.99
2016-04-10T07:29:12.221Z,99.99
2016-04-10T07:30:12.176Z,99.99
2016-04-10T07:31:12.132Z,99.99
2016-04-10T07:32:12.088Z,99.99
2016-04-10T07:33:12.012Z,99.99
2016-04-10T07:34:11.969Z,99.99
2016-04-10T07:35:11.893Z,99.99
2016-04-10T07:36:11.849Z,99.99
2016-04-10T07:37:11.788Z,99.99
2016-04-10T07:38:11.745Z,99.99
2016-04-10T07:39:11.684Z,99.99
2016-04-10T07:40:11.640Z,99.99
2016-04-10T07:41:11.580Z,99.99
2016-04-10T07:42:11.521Z,99.99
2016-04-10T07:43:11.492Z,99.64
2016-04-10T07:44:11.417Z,99.99
2016-04-10T07:45:11.373Z,99.99
2016-04-10T07:46:11.312Z,99.99
2016-04-10T07:47:11.269Z,99.99
2016-04-10T07:48:11.209Z,99.99
2016-04-10T07:49:11.165Z,99.99
2016-04-10T07:50:11.105Z,99.99
2016-04-10T07:51:11.044Z,99.99
2016-04-10T07:52:11.000Z,99.55
2016-04-10T07:53:10.941Z,99.55
2016-04-10T07:54:11.350Z,99.99
2016-04-10T07:55:10.837Z,99.99
2016-04-10T07:56:10.777Z,99.99
2016-04-10T07:57:10.733Z,99.99
2016-04-10T07:58:10.689Z,99.99
2016-04-10T07:59:10.613Z,99.99
2016-04-10T08:00:10.569Z,99.99
2016-04-10T08:01:10.510Z,99.99
2016-04-10T08:02:10.480Z,99.99
2016-04-10T08:03:10.422Z,99.99
2016-04-10T08:04:10.346Z,99.99
2016-04-10T08:05:10.318Z,99.99
2016-04-10T08:06:10.257Z,99.98
2016-04-10T08:07:10.198Z,99.22
2016-04-10T08:08:10.137Z,99.6
2016-04-10T08:09:10.093Z,98.83
2016-04-10T08:10:10.049Z,99.12
2016-04-10T08:11:09.989Z,99.69
2016-04-10T08:12:09.930Z,99.79
2016-04-10T08:13:09.870Z,98.93
2016-04-10T08:14:09.841Z,98.74
2016-04-10T08:15:09.766Z,99.02
2016-04-10T08:16:09.722Z,99.02
2016-04-10T08:17:09.677Z,97.98
2016-04-10T08:18:09.617Z,97.41
2016-04-10T08:19:09.558Z,97.88
2016-04-10T08:20:09.498Z,98.55
2016-04-10T08:21:09.470Z,98.27
2016-04-10T08:22:09.394Z,97.27
2016-04-10T08:23:09.350Z,97.27
2016-04-10T08:24:09.289Z,97.84
2016-04-10T08:25:09.246Z,97.17
2016-04-10T08:26:09.185Z,96.98
2016-04-10T08:27:09.142Z,96.41
2016-04-10T08:28:09.082Z,96.12
2016-04-10T08:29:09.038Z,96.08
2016-04-10T08:30:08.994Z,95.27
2016-04-10T08:31:08.933Z,95.65
2016-04-10T08:32:08.874Z,95.27
2016-04-10T08:33:08.830Z,94.6
2016-04-10T08:34:08.770Z,94.6
2016-04-10T08:35:08.726Z,94.42
2016-04-10T08:36:08.666Z,94.56
2016-04-10T08:37:08.449Z,92.94
2016-04-10T08:38:08.563Z,91.6
2016-04-10T08:39:08.502Z,92.08
2016-04-10T08:40:08.442Z,91.6
2016-04-10T08:41:08.399Z,92.22
2016-04-10T08:42:08.338Z,92.13
2016-04-10T08:43:08.294Z,93.03
2016-04-10T08:44:08.235Z,91.13
2016-04-10T08:45:08.190Z,90.27
2016-04-10T08:46:08.131Z,89.89
2016-04-10T08:47:08.087Z,89.07
2016-04-10T08:48:08.026Z,89.55
2016-04-10T08:49:07.981Z,90.41
2016-04-10T08:50:07.923Z,88.17
2016-04-10T08:51:07.878Z,87.31
2016-04-10T08:52:07.818Z,86.65
2016-04-10T08:53:07.789Z,86.55
2016-04-10T08:54:07.855Z,87.69
2016-04-10T08:55:07.670Z,88.74
2016-04-10T08:56:07.610Z,87.45
2016-04-10T08:57:07.567Z,85.93
2016-04-10T08:58:07.506Z,86.4
2016-04-10T08:59:07.462Z,88.21
2016-04-10T09:00:07.403Z,85.06
2016-04-10T09:01:07.374Z,85.01
2016-04-10T09:02:07.299Z,85.49
2016-04-10T09:03:07.238Z,85.15
2016-04-10T09:04:07.194Z,85.25
2016-04-10T09:05:07.150Z,85.82
2016-04-10T09:06:07.090Z,84.77
2016-04-10T09:07:07.046Z,83.95
2016-04-10T09:08:07.002Z,83
2016-04-10T09:09:06.973Z,83.76
2016-04-10T09:10:06.899Z,82.9
2016-04-10T09:11:06.838Z,82.32
2016-04-10T09:12:06.778Z,82.81
2016-04-10T09:13:06.734Z,81.66
2016-04-10T09:14:06.674Z,80.65
2016-04-10T09:15:06.646Z,81.13
2016-04-10T09:16:06.570Z,80.65
2016-04-10T09:17:06.542Z,80.79
2016-04-10T09:18:06.482Z,79.83
2016-04-10T09:19:06.422Z,79.64
2016-04-10T09:20:06.378Z,78.87
2016-04-10T09:21:06.333Z,79.35
2016-04-10T09:22:06.275Z,78.91
2016-04-10T09:23:06.214Z,79.25
2016-04-10T09:24:06.358Z,79.29
2016-04-10T09:25:06.126Z,78.97
2016-04-10T09:26:06.066Z,79.44
2016-04-10T09:27:06.038Z,79.73
2016-04-10T09:28:05.977Z,78.78
2016-04-10T09:29:05.933Z,79.25
2016-04-10T09:30:05.889Z,79.2
2016-04-10T09:31:05.830Z,77.95
2016-04-10T09:32:05.769Z,77.95
2016-04-10T09:33:05.725Z,79
2016-04-10T09:34:05.666Z,78.87
2016-04-10T09:35:05.621Z,77.57
2016-04-10T09:36:05.562Z,75.76
2016-04-10T09:37:05.518Z,75.47
2016-04-10T09:38:05.474Z,75.09
2016-04-10T09:39:05.741Z,72.6
2016-04-10T09:40:05.369Z,72.18
2016-04-10T09:41:05.326Z,73.8
2016-04-10T09:42:05.265Z,75.62
2016-04-10T09:43:05.252Z,75.37
2016-04-10T09:44:05.193Z,74.9
2016-04-10T09:45:05.117Z,75.31
2016-04-10T09:46:05.073Z,76.27
2016-04-10T09:47:05.029Z,75.31
2016-04-10T09:48:05.000Z,74.65
2016-04-10T09:49:04.940Z,72.58
2016-04-10T09:50:04.865Z,73.59
2016-04-10T09:51:04.821Z,72.92
2016-04-10T09:52:04.792Z,74.07
2016-04-10T09:53:04.733Z,73.79
2016-04-10T09:54:04.578Z,72.96
2016-04-10T09:55:04.628Z,72.48
2016-04-10T09:56:04.584Z,72.16
2016-04-10T09:57:04.540Z,71.97
2016-04-10T09:58:04.481Z,69.86
2016-04-10T09:59:04.420Z,70.09
2016-04-10T10:00:04.392Z,69.03
2016-04-10T10:01:04.332Z,68.62
2016-04-10T10:02:04.288Z,69.67
2016-04-10T10:03:04.244Z,70.62
2016-04-10T10:04:04.183Z,71.77
2016-04-10T10:05:04.124Z,70.76
2016-04-10T10:06:04.096Z,70.28
2016-04-10T10:07:04.052Z,69.76
2016-04-10T10:08:03.836Z,70.34
2016-04-10T10:09:03.936Z,68.84
2016-04-10T10:10:03.892Z,70.28
2016-04-10T10:11:03.832Z,71.46
2016-04-10T10:12:03.817Z,70.98
2016-04-10T10:13:03.816Z,69.87
2016-04-10T10:14:03.813Z,68.68
2016-04-10T10:15:03.795Z,69.83
2016-04-10T10:16:03.793Z,68.14
2016-04-10T10:17:03.772Z,68.59
2016-04-10T10:18:03.728Z,67.18
2016-04-10T10:19:03.699Z,64.98
2016-04-10T10:20:03.655Z,64.76
2016-04-10T10:21:03.657Z,66.06
2016-04-10T10:22:03.591Z,68.68
2016-04-10T10:23:03.552Z,68.52
2016-04-10T10:24:03.529Z,68.91
2016-04-10T10:25:02.740Z,67.76
2016-04-10T10:26:03.435Z,65.11
2016-04-10T10:27:03.393Z,64.79
2016-04-10T10:28:03.320Z,66.19
2016-04-10T10:29:03.294Z,67.54
2016-04-10T10:30:03.236Z,69.2
2016-04-10T10:31:03.194Z,65.17
2016-04-10T10:32:03.135Z,66.51
2016-04-10T10:33:03.092Z,65.75
2016-04-10T10:34:03.064Z,65.91
2016-04-10T10:35:02.989Z,66.99
2016-04-10T10:36:02.962Z,65.3
2016-04-10T10:37:02.902Z,64.05
2016-04-10T10:38:02.858Z,64.34
2016-04-10T10:39:02.830Z,63.96
2016-04-10T10:40:02.786Z,65.26
2016-04-10T10:41:02.711Z,65.55
2016-04-10T10:42:02.667Z,64.98
2016-04-10T10:43:02.622Z,64.63
2016-04-10T10:44:02.578Z,62.36
2016-04-10T10:45:02.535Z,62.26
2016-04-10T10:46:02.475Z,64.28
2016-04-10T10:47:02.431Z,63.22
2016-04-10T10:48:02.371Z,62.9
2016-04-10T10:49:02.327Z,62.74
2016-04-10T10:50:02.298Z,60.35
2016-04-10T10:51:02.254Z,62.26
2016-04-10T10:52:02.179Z,61.75
2016-04-10T10:53:02.149Z,62.36
2016-04-10T10:54:02.074Z,63.12
2016-04-10T10:55:02.029Z,62.39
2016-04-10T10:56:02.001Z,61.24
2016-04-10T10:57:01.957Z,60.66
2016-04-10T10:58:01.897Z,60.75
2016-04-10T10:59:01.868Z,62.01
2016-04-10T11:00:01.809Z,62.45
2016-04-10T11:01:01.765Z,61.24
2016-04-10T11:02:01.706Z,62.77
2016-04-10T11:03:01.661Z,63.06
2016-04-10T11:04:01.632Z,62.77
2016-04-10T11:05:01.573Z,62.19
2016-04-10T11:06:01.528Z,60.4
2016-04-10T11:07:01.484Z,61.88
2016-04-10T11:08:01.425Z,60.38
2016-04-10T11:09:01.381Z,59.61
2016-04-10T11:10:01.337Z,58.17
2016-04-10T11:11:01.276Z,59.32
2016-04-10T11:12:01.264Z,59.89
2016-04-10T11:13:01.189Z,56.95
2016-04-10T11:14:01.144Z,58.45
2016-04-10T11:15:01.100Z,59.12
2016-04-10T11:16:01.039Z,57.59
2016-04-10T11:17:01.011Z,58.17
2016-04-10T11:18:00.952Z,61.52
2016-04-10T11:19:00.922Z,60.66
2016-04-10T11:20:00.847Z,61.72
2016-04-10T11:21:00.818Z,60.4
2016-04-10T11:22:00.774Z,58.96
2016-04-10T11:23:00.715Z,57.81
2016-04-10T11:24:00.671Z,59.64
2016-04-10T11:25:00.611Z,59.73
2016-04-10T11:26:00.566Z,58.96
2016-04-10T11:27:00.523Z,57.62
2016-04-10T11:28:00.493Z,58.22
2016-04-10T11:29:00.434Z,59.03
2016-04-10T11:30:00.390Z,59.51
2016-04-10T11:31:00.345Z,60.4
2016-04-10T11:32:00.286Z,58.2
2016-04-10T11:33:00.241Z,58.64
2016-04-10T11:34:00.197Z,59.03
2016-04-10T11:35:00.137Z,57.88
2016-04-10T11:36:00.093Z,57.88
2016-04-10T11:37:00.049Z,58.36
2016-04-10T11:38:00.006Z,58.04
2016-04-10T11:38:59.961Z,58.17
2016-04-10T11:39:59.901Z,58.45
2016-04-10T11:40:59.857Z,58.64
2016-04-10T11:41:59.813Z,58.17
2016-04-10T11:42:59.784Z,57.52
2016-04-10T11:43:59.724Z,57.33
2016-04-10T11:44:59.680Z,56.66
2016-04-10T11:45:59.620Z,56.37
2016-04-10T11:46:59.608Z,55.44
2016-04-10T11:47:59.533Z,55.32
2016-04-10T11:48:59.488Z,55.63
2016-04-10T11:49:59.444Z,55.44
2016-04-10T11:50:59.384Z,54.96
2016-04-10T11:51:59.340Z,55.22
2016-04-10T11:52:59.311Z,54.38
2016-04-10T11:53:59.251Z,53.42
2016-04-10T11:54:59.207Z,54.25
2016-04-10T11:55:59.163Z,54.38
2016-04-10T11:56:59.103Z,53.83
2016-04-10T11:57:59.059Z,55.15
2016-04-10T11:58:59.030Z,53.35
2016-04-10T11:59:58.970Z,53.06
2016-04-10T12:00:58.926Z,53.76
2016-04-10T12:01:58.882Z,54.14
2016-04-10T12:02:58.838Z,52.99
2016-04-10T12:03:58.810Z,54.14
2016-04-10T12:04:58.734Z,52.84
2016-04-10T12:05:58.690Z,51.31
2016-04-10T12:06:58.645Z,52.1
2016-04-10T12:07:58.601Z,54.02
2016-04-10T12:08:58.542Z,52.48
2016-04-10T12:09:58.513Z,50.99
2016-04-10T12:10:58.453Z,52.46
2016-04-10T12:11:58.408Z,53.3
2016-04-10T12:12:58.364Z,51.31
2016-04-10T12:13:58.305Z,50.27
2016-04-10T12:14:58.260Z,50.4
2016-04-10T12:15:58.233Z,49.53
2016-04-10T12:16:58.188Z,50.15
2016-04-10T12:17:58.128Z,50.08
2016-04-10T12:18:58.084Z,50.95
2016-04-10T12:19:58.055Z,52.17
2016-04-10T12:20:57.980Z,52.26
2016-04-10T12:21:57.935Z,50.92
2016-04-10T12:22:57.892Z,51.23
2016-04-10T12:23:57.847Z,51.07
2016-04-10T12:24:58.022Z,49.17
2016-04-10T12:25:57.775Z,48.47
2016-04-10T12:26:57.716Z,49.05
2016-04-10T12:27:57.655Z,50.08
2016-04-10T12:28:57.611Z,50.08
2016-04-10T12:29:57.583Z,50.37
2016-04-10T12:30:57.523Z,50.4
2016-04-10T12:31:57.479Z,50.87
2016-04-10T12:32:57.434Z,50.59
2016-04-10T12:33:57.390Z,50.76
2016-04-10T12:34:57.330Z,50.25
2016-04-10T12:35:57.286Z,50.99
2016-04-10T12:36:57.242Z,52.12
2016-04-10T12:37:57.197Z,51.95
2016-04-10T12:38:57.153Z,51.86
2016-04-10T12:39:56.969Z,52.43
2016-04-10T12:40:57.050Z,52.62
2016-04-10T12:41:57.006Z,53.46
2016-04-10T12:42:56.961Z,53.75
2016-04-10T12:43:56.917Z,54.13
2016-04-10T12:44:56.872Z,55.55
2016-04-10T12:45:56.813Z,55.67
2016-04-10T12:46:56.769Z,56.31
2016-04-10T12:47:56.724Z,57.11
2016-04-10T12:48:56.680Z,56.73
2016-04-10T12:49:56.635Z,56.7
2016-04-10T12:50:56.576Z,57.37
2016-04-10T12:51:56.547Z,57.46
2016-04-10T12:52:56.504Z,56.76